sensor_id;sensor_type;location;lat;lon;timestamp;pressure;altitude;pressure_sealevel;temperature;humidity
71384;BME280;61466;52.166;5.004;2022-12-11T00:01:55;101230.16;;;4.12;72.48
71384;BME280;61466;52.166;5.004;2022-12-11T00:04:21;101230.16;;;4.12;72.60
71384;BME280;61466;52.166;5.004;2022-12-11T00:06:46;101228.56;;;4.11;72.42
71384;BME280;61466;52.166;5.004;2022-12-11T00:09:15;101232.97;;;4.17;72.49
71384;BME280;61466;52.166;5.004;2022-12-11T00:11:41;101219.19;;;4.08;72.34
71384;BME280;61466;52.166;5.004;2022-12-11T00:14:06;101229.97;;;4.14;72.41
71384;BME280;61466;52.166;5.004;2022-12-11T00:16:31;101235.63;;;4.17;72.50
71384;BME280;61466;52.166;5.004;2022-12-11T00:18:57;101228.16;;;4.07;72.52
71384;BME280;61466;52.166;5.004;2022-12-11T00:21:22;101232.59;;;4.14;72.37
71384;BME280;61466;52.166;5.004;2022-12-11T00:23:47;101219.78;;;4.10;72.64
71384;BME280;61466;52.166;5.004;2022-12-11T00:26:14;101231.31;;;4.23;72.27
71384;BME280;61466;52.166;5.004;2022-12-11T00:28:39;101227.47;;;4.19;72.25
71384;BME280;61466;52.166;5.004;2022-12-11T00:31:08;101238.47;;;4.22;72.26
71384;BME280;61466;52.166;5.004;2022-12-11T00:33:34;101228.69;;;4.23;72.29
71384;BME280;61466;52.166;5.004;2022-12-11T00:35:59;101233.78;;;4.24;72.63
71384;BME280;61466;52.166;5.004;2022-12-11T00:38:25;101232.38;;;4.22;72.32
71384;BME280;61466;52.166;5.004;2022-12-11T00:40:50;101210.19;;;4.16;72.19
71384;BME280;61466;52.166;5.004;2022-12-11T00:43:16;101227.66;;;4.24;72.56
71384;BME280;61466;52.166;5.004;2022-12-11T00:45:43;101225.63;;;4.26;72.68
71384;BME280;61466;52.166;5.004;2022-12-11T00:48:10;101231.72;;;4.26;72.42
71384;BME280;61466;52.166;5.004;2022-12-11T00:50:36;101225.63;;;4.26;72.67
71384;BME280;61466;52.166;5.004;2022-12-11T00:53:03;101235.38;;;4.25;72.24
71384;BME280;61466;52.166;5.004;2022-12-11T00:55:29;101221.78;;;4.22;72.42
71384;BME280;61466;52.166;5.004;2022-12-11T00:57:55;101228.84;;;4.28;72.46
71384;BME280;61466;52.166;5.004;2022-12-11T01:00:22;101228.28;;;4.26;72.54
71384;BME280;61466;52.166;5.004;2022-12-11T01:02:48;101224.38;;;4.28;72.41
71384;BME280;61466;52.166;5.004;2022-12-11T01:05:13;101212.19;;;4.21;72.55
71384;BME280;61466;52.166;5.004;2022-12-11T01:07:39;101216.63;;;4.27;72.42
71384;BME280;61466;52.166;5.004;2022-12-11T01:10:05;101218.66;;;4.31;72.40
71384;BME280;61466;52.166;5.004;2022-12-11T01:13:00;101215.41;;;4.29;72.43
71384;BME280;61466;52.166;5.004;2022-12-11T01:15:28;101211.34;;;4.27;72.35
71384;BME280;61466;52.166;5.004;2022-12-11T01:17:54;101216.81;;;4.32;72.34
71384;BME280;61466;52.166;5.004;2022-12-11T01:20:21;101207.66;;;4.28;72.43
71384;BME280;61466;52.166;5.004;2022-12-11T01:22:47;101213.78;;;4.28;72.45
71384;BME280;61466;52.166;5.004;2022-12-11T01:25:13;101206.84;;;4.27;72.32
71384;BME280;61466;52.166;5.004;2022-12-11T01:27:38;101209.69;;;4.33;72.45
71384;BME280;61466;52.166;5.004;2022-12-11T01:30:06;101198.09;;;4.27;72.64
71384;BME280;61466;52.166;5.004;2022-12-11T01:32:32;101210.50;;;4.33;72.11
71384;BME280;61466;52.166;5.004;2022-12-11T01:34:58;101221.69;;;4.35;72.27
71384;BME280;61466;52.166;5.004;2022-12-11T01:37:23;101208.44;;;4.35;72.22
71384;BME280;61466;52.166;5.004;2022-12-11T01:39:49;101214.75;;;4.34;72.43
71384;BME280;61466;52.166;5.004;2022-12-11T01:42:18;101222.50;;;4.36;72.31
71384;BME280;61466;52.166;5.004;2022-12-11T01:47:09;101219.63;;;4.37;72.08
71384;BME280;61466;52.166;5.004;2022-12-11T01:49:35;101218.00;;;4.36;71.95
71384;BME280;61466;52.166;5.004;2022-12-11T01:52:05;101212.94;;;4.35;72.02
71384;BME280;61466;52.166;5.004;2022-12-11T01:54:33;101201.94;;;4.31;71.90
71384;BME280;61466;52.166;5.004;2022-12-11T01:57:06;101212.09;;;4.34;72.04
71384;BME280;61466;52.166;5.004;2022-12-11T01:59:35;101203.16;;;4.35;72.33
71384;BME280;61466;52.166;5.004;2022-12-11T02:02:05;101204.34;;;4.39;72.00
71384;BME280;61466;52.166;5.004;2022-12-11T02:04:33;101201.09;;;4.37;72.07
71384;BME280;61466;52.166;5.004;2022-12-11T02:06:59;101203.91;;;4.42;71.68
71384;BME280;61466;52.166;5.004;2022-12-11T02:09:27;101203.09;;;4.42;71.89
71384;BME280;61466;52.166;5.004;2022-12-11T02:12:23;101197.00;;;4.41;72.01
71384;BME280;61466;52.166;5.004;2022-12-11T02:15:11;101202.28;;;4.41;72.03
71384;BME280;61466;52.166;5.004;2022-12-11T02:20:22;101197.19;;;4.40;71.68
71384;BME280;61466;52.166;5.004;2022-12-11T02:28:17;101193.75;;;4.39;71.74
71384;BME280;61466;52.166;5.004;2022-12-11T02:30:51;101192.91;;;4.39;71.73
71384;BME280;61466;52.166;5.004;2022-12-11T02:33:22;101187.41;;;4.40;71.32
71384;BME280;61466;52.166;5.004;2022-12-11T02:35:50;101180.72;;;4.38;71.64
71384;BME280;61466;52.166;5.004;2022-12-11T02:38:25;101178.28;;;4.36;71.50
71384;BME280;61466;52.166;5.004;2022-12-11T02:40:55;101174.41;;;4.32;71.64
71384;BME280;61466;52.166;5.004;2022-12-11T02:43:22;101170.56;;;4.35;71.67
71384;BME280;61466;52.166;5.004;2022-12-11T02:45:50;101182.56;;;4.37;71.75
71384;BME280;61466;52.166;5.004;2022-12-11T02:48:17;101159.13;;;4.34;71.58
71384;BME280;61466;52.166;5.004;2022-12-11T02:50:46;101170.56;;;4.35;71.61
71384;BME280;61466;52.166;5.004;2022-12-11T02:53:16;101170.38;;;4.29;71.34
71384;BME280;61466;52.166;5.004;2022-12-11T02:55:43;101177.06;;;4.32;71.46
71384;BME280;61466;52.166;5.004;2022-12-11T02:58:22;101174.66;;;4.30;71.61
71384;BME280;61466;52.166;5.004;2022-12-11T03:00:50;101172.38;;;4.34;71.42
71384;BME280;61466;52.166;5.004;2022-12-11T03:03:15;101171.78;;;4.32;71.36
71384;BME280;61466;52.166;5.004;2022-12-11T03:05:41;101180.72;;;4.38;71.44
71384;BME280;61466;52.166;5.004;2022-12-11T03:08:07;101158.38;;;4.27;71.69
71384;BME280;61466;52.166;5.004;2022-12-11T03:10:33;101167.66;;;4.36;71.43
71384;BME280;61466;52.166;5.004;2022-12-11T03:12:58;101166.28;;;4.34;71.63
71384;BME280;61466;52.166;5.004;2022-12-11T03:15:34;101170.16;;;4.31;71.40
71384;BME280;61466;52.166;5.004;2022-12-11T03:20:43;101168.13;;;4.33;71.52
71384;BME280;61466;52.166;5.004;2022-12-11T03:28:20;101169.06;;;4.39;71.20
71384;BME280;61466;52.166;5.004;2022-12-11T03:30:50;101162.78;;;4.40;71.34
71384;BME280;61466;52.166;5.004;2022-12-11T03:33:33;101153.03;;;4.34;71.13
71384;BME280;61466;52.166;5.004;2022-12-11T03:36:05;101161.13;;;4.39;70.99
71384;BME280;61466;52.166;5.004;2022-12-11T03:38:40;101156.88;;;4.38;71.12
71384;BME280;61466;52.166;5.004;2022-12-11T03:41:09;101162.16;;;4.38;71.03
71384;BME280;61466;52.166;5.004;2022-12-11T03:43:37;101160.38;;;4.31;70.91
71384;BME280;61466;52.166;5.004;2022-12-11T03:46:03;101158.94;;;4.36;70.87
71384;BME280;61466;52.166;5.004;2022-12-11T03:48:32;101165.41;;;4.40;71.42
71384;BME280;61466;52.166;5.004;2022-12-11T03:51:01;101159.72;;;4.36;71.11
71384;BME280;61466;52.166;5.004;2022-12-11T03:53:28;101166.00;;;4.42;71.01
71384;BME280;61466;52.166;5.004;2022-12-11T03:55:55;101158.13;;;4.35;70.99
71384;BME280;61466;52.166;5.004;2022-12-11T03:58:22;101153.84;;;4.34;70.94
71384;BME280;61466;52.166;5.004;2022-12-11T04:00:48;101149.78;;;4.31;71.03
71384;BME280;61466;52.166;5.004;2022-12-11T04:03:13;101152.81;;;4.35;71.00
71384;BME280;61466;52.166;5.004;2022-12-11T04:05:43;101155.03;;;4.38;71.00
71384;BME280;61466;52.166;5.004;2022-12-11T04:08:09;101159.72;;;4.36;71.00
71384;BME280;61466;52.166;5.004;2022-12-11T04:10:35;101163.56;;;4.40;70.72
71384;BME280;61466;52.166;5.004;2022-12-11T04:13:00;101156.88;;;4.38;70.98
71384;BME280;61466;52.166;5.004;2022-12-11T04:15:25;101152.38;;;4.38;70.92
71384;BME280;61466;52.166;5.004;2022-12-11T04:17:51;101146.13;;;4.33;70.81
71384;BME280;61466;52.166;5.004;2022-12-11T04:20:35;101150.53;;;4.39;70.79
71384;BME280;61466;52.166;5.004;2022-12-11T04:23:19;101142.03;;;4.30;70.75
71384;BME280;61466;52.166;5.004;2022-12-11T04:26:14;101151.78;;;4.36;70.98
71384;BME280;61466;52.166;5.004;2022-12-11T04:28:42;101138.19;;;4.33;70.87
71384;BME280;61466;52.166;5.004;2022-12-11T04:31:18;101130.66;;;4.29;70.81
71384;BME280;61466;52.166;5.004;2022-12-11T04:33:45;101144.06;;;4.35;70.78
71384;BME280;61466;52.166;5.004;2022-12-11T04:36:11;101144.28;;;4.33;70.86
71384;BME280;61466;52.166;5.004;2022-12-11T04:38:37;101138.19;;;4.33;70.86
71384;BME280;61466;52.166;5.004;2022-12-11T04:41:12;101133.50;;;4.28;71.00
71384;BME280;61466;52.166;5.004;2022-12-11T04:43:38;101129.19;;;4.34;70.73
71384;BME280;61466;52.166;5.004;2022-12-11T04:46:10;101124.16;;;4.25;70.85
71384;BME280;61466;52.166;5.004;2022-12-11T04:48:36;101131.44;;;4.30;70.64
71384;BME280;61466;52.166;5.004;2022-12-11T04:51:02;101127.41;;;4.27;70.75
71384;BME280;61466;52.166;5.004;2022-12-11T04:53:28;101148.94;;;4.38;70.93
71384;BME280;61466;52.166;5.004;2022-12-11T04:55:54;101138.78;;;4.35;70.75
71384;BME280;61466;52.166;5.004;2022-12-11T04:58:19;101150.31;;;4.40;70.64
71384;BME280;61466;52.166;5.004;2022-12-11T05:00:45;101158.28;;;4.40;70.62
71384;BME280;61466;52.166;5.004;2022-12-11T05:03:11;101152.38;;;4.38;70.56
71384;BME280;61466;52.166;5.004;2022-12-11T05:05:36;101148.13;;;4.37;70.56
71384;BME280;61466;52.166;5.004;2022-12-11T05:08:02;101154.03;;;4.39;70.59
71384;BME280;61466;52.166;5.004;2022-12-11T05:10:27;101158.88;;;4.42;70.58
71384;BME280;61466;52.166;5.004;2022-12-11T05:12:52;101148.94;;;4.38;70.72
71384;BME280;61466;52.166;5.004;2022-12-11T05:15:18;101156.66;;;4.39;70.53
71384;BME280;61466;52.166;5.004;2022-12-11T05:17:43;101149.53;;;4.40;70.58
71384;BME280;61466;52.166;5.004;2022-12-11T05:20:09;101154.81;;;4.40;70.52
71384;BME280;61466;52.166;5.004;2022-12-11T05:22:36;101151.38;;;4.39;70.32
71384;BME280;61466;52.166;5.004;2022-12-11T05:25:01;101151.19;;;4.34;70.50
71384;BME280;61466;52.166;5.004;2022-12-11T05:27:27;101145.28;;;4.32;70.50
71384;BME280;61466;52.166;5.004;2022-12-11T05:29:52;101141.03;;;4.31;70.60
71384;BME280;61466;52.166;5.004;2022-12-11T05:32:17;101136.53;;;4.31;70.29
71384;BME280;61466;52.166;5.004;2022-12-11T05:34:43;101135.75;;;4.31;70.34
71384;BME280;61466;52.166;5.004;2022-12-11T05:37:08;101144.44;;;4.38;70.27
71384;BME280;61466;52.166;5.004;2022-12-11T05:39:34;101145.25;;;4.39;70.35
71384;BME280;61466;52.166;5.004;2022-12-11T05:41:59;101131.63;;;4.35;70.15
71384;BME280;61466;52.166;5.004;2022-12-11T05:44:25;101130.59;;;4.36;70.14
71384;BME280;61466;52.166;5.004;2022-12-11T05:46:51;101130.19;;;4.39;70.20
71384;BME280;61466;52.166;5.004;2022-12-11T05:49:16;101137.09;;;4.40;70.18
71384;BME280;61466;52.166;5.004;2022-12-11T05:51:42;101137.53;;;4.37;69.81
71384;BME280;61466;52.166;5.004;2022-12-11T05:54:08;101126.94;;;4.37;70.23
71384;BME280;61466;52.166;5.004;2022-12-11T05:56:33;101122.28;;;4.33;70.01
71384;BME280;61466;52.166;5.004;2022-12-11T05:59:00;101132.44;;;4.36;70.16
71384;BME280;61466;52.166;5.004;2022-12-11T06:01:34;101127.78;;;4.31;69.82
71384;BME280;61466;52.166;5.004;2022-12-11T06:04:00;101125.53;;;4.35;69.95
71384;BME280;61466;52.166;5.004;2022-12-11T06:06:26;101128.19;;;4.35;70.36
71384;BME280;61466;52.166;5.004;2022-12-11T06:08:53;101125.75;;;4.33;70.09
71384;BME280;61466;52.166;5.004;2022-12-11T06:11:19;101133.25;;;4.36;70.03
71384;BME280;61466;52.166;5.004;2022-12-11T06:13:45;101130.38;;;4.38;70.05
71384;BME280;61466;52.166;5.004;2022-12-11T06:16:10;101119.84;;;4.31;70.07
71384;BME280;61466;52.166;5.004;2022-12-11T06:18:37;101128.38;;;4.33;69.96
71384;BME280;61466;52.166;5.004;2022-12-11T06:21:23;101131.84;;;4.34;69.92
71384;BME280;61466;52.166;5.004;2022-12-11T06:23:50;101129.78;;;4.36;69.94
71384;BME280;61466;52.166;5.004;2022-12-11T06:26:17;101125.94;;;4.31;69.96
71384;BME280;61466;52.166;5.004;2022-12-11T06:28:42;101129.63;;;4.30;70.00
71384;BME280;61466;52.166;5.004;2022-12-11T06:31:08;101133.91;;;4.31;69.92
71384;BME280;61466;52.166;5.004;2022-12-11T06:33:34;101139.19;;;4.31;69.83
71384;BME280;61466;52.166;5.004;2022-12-11T06:36:03;101129.44;;;4.25;69.50
71384;BME280;61466;52.166;5.004;2022-12-11T06:38:29;101125.84;;;4.20;69.88
71384;BME280;61466;52.166;5.004;2022-12-11T06:40:56;101142.94;;;4.24;69.57
71384;BME280;61466;52.166;5.004;2022-12-11T06:43:21;101146.19;;;4.26;69.73
71384;BME280;61466;52.166;5.004;2022-12-11T06:45:47;101143.94;;;4.23;69.52
71384;BME280;61466;52.166;5.004;2022-12-11T06:48:12;101139.69;;;4.22;69.68
71384;BME280;61466;52.166;5.004;2022-12-11T06:50:38;101139.09;;;4.20;69.77
71384;BME280;61466;52.166;5.004;2022-12-11T06:53:03;101139.09;;;4.20;69.76
71384;BME280;61466;52.166;5.004;2022-12-11T06:55:28;101139.69;;;4.22;69.42
71384;BME280;61466;52.166;5.004;2022-12-11T06:57:54;101142.09;;;4.23;69.57
71384;BME280;61466;52.166;5.004;2022-12-11T07:00:19;101133.19;;;4.18;69.68
71384;BME280;61466;52.166;5.004;2022-12-11T07:02:45;101138.03;;;4.21;69.74
71384;BME280;61466;52.166;5.004;2022-12-11T07:05:10;101134.16;;;4.23;69.61
71384;BME280;61466;52.166;5.004;2022-12-11T07:07:35;101148.00;;;4.25;69.38
71384;BME280;61466;52.166;5.004;2022-12-11T07:10:01;101134.00;;;4.18;69.42
71384;BME280;61466;52.166;5.004;2022-12-11T07:12:26;101146.59;;;4.23;69.26
71384;BME280;61466;52.166;5.004;2022-12-11T07:14:51;101150.88;;;4.24;69.58
71384;BME280;61466;52.166;5.004;2022-12-11T07:17:17;101148.63;;;4.21;69.55
71384;BME280;61466;52.166;5.004;2022-12-11T07:19:42;101151.50;;;4.19;69.54
71384;BME280;61466;52.166;5.004;2022-12-11T07:22:07;101141.34;;;4.16;69.49
71384;BME280;61466;52.166;5.004;2022-12-11T07:24:36;101152.13;;;4.15;69.27
71384;BME280;61466;52.166;5.004;2022-12-11T07:27:02;101146.63;;;4.16;69.23
71384;BME280;61466;52.166;5.004;2022-12-11T07:29:28;101156.19;;;4.17;69.08
71384;BME280;61466;52.166;5.004;2022-12-11T07:31:53;101157.38;;;4.21;69.09
71384;BME280;61466;52.166;5.004;2022-12-11T07:34:18;101151.50;;;4.19;69.14
71384;BME280;61466;52.166;5.004;2022-12-11T07:36:44;101152.31;;;4.20;68.96
71384;BME280;61466;52.166;5.004;2022-12-11T07:39:11;101153.94;;;4.21;69.15
71384;BME280;61466;52.166;5.004;2022-12-11T07:41:37;101155.97;;;4.19;68.86
71384;BME280;61466;52.166;5.004;2022-12-11T07:44:02;101147.03;;;4.20;69.22
71384;BME280;61466;52.166;5.004;2022-12-11T07:46:30;101157.78;;;4.25;69.09
71384;BME280;61466;52.166;5.004;2022-12-11T07:48:57;101160.63;;;4.23;68.59
71384;BME280;61466;52.166;5.004;2022-12-11T07:51:25;101152.31;;;4.20;68.78
71384;BME280;61466;52.166;5.004;2022-12-11T07:53:54;101160.88;;;4.22;68.87
71384;BME280;61466;52.166;5.004;2022-12-11T07:56:21;101160.03;;;4.21;68.68
71384;BME280;61466;52.166;5.004;2022-12-11T07:58:46;101164.38;;;4.16;68.66
71384;BME280;61466;52.166;5.004;2022-12-11T08:01:13;101170.25;;;4.18;68.54
71384;BME280;61466;52.166;5.004;2022-12-11T08:03:39;101169.66;;;4.16;68.69
71384;BME280;61466;52.166;5.004;2022-12-11T08:06:05;101158.88;;;4.10;68.61
71384;BME280;61466;52.166;5.004;2022-12-11T08:08:31;101164.13;;;4.17;68.44
71384;BME280;61466;52.166;5.004;2022-12-11T08:11:00;101167.22;;;4.14;68.12
71384;BME280;61466;52.166;5.004;2022-12-11T08:13:25;101169.06;;;4.14;68.25
71384;BME280;61466;52.166;5.004;2022-12-11T08:15:51;101172.31;;;4.16;68.41
71384;BME280;61466;52.166;5.004;2022-12-11T08:18:16;101178.19;;;4.18;68.14
71384;BME280;61466;52.166;5.004;2022-12-11T08:20:42;101172.50;;;4.14;68.24
71384;BME280;61466;52.166;5.004;2022-12-11T08:23:07;101178.19;;;4.18;68.19
71384;BME280;61466;52.166;5.004;2022-12-11T08:25:32;101169.44;;;4.17;68.18
71384;BME280;61466;52.166;5.004;2022-12-11T08:27:58;101163.56;;;4.15;68.04
71384;BME280;61466;52.166;5.004;2022-12-11T08:30:23;101171.66;;;4.20;68.30
71384;BME280;61466;52.166;5.004;2022-12-11T08:32:48;101171.66;;;4.20;68.24
71384;BME280;61466;52.166;5.004;2022-12-11T08:35:14;101163.56;;;4.15;68.30
71384;BME280;61466;52.166;5.004;2022-12-11T08:37:39;101175.72;;;4.23;68.02
71384;BME280;61466;52.166;5.004;2022-12-11T08:40:05;101178.38;;;4.23;67.89
71384;BME280;61466;52.166;5.004;2022-12-11T08:42:31;101164.53;;;4.21;67.91
71384;BME280;61466;52.166;5.004;2022-12-11T08:44:56;101168.56;;;4.23;68.16
71384;BME280;61466;52.166;5.004;2022-12-11T08:47:21;101164.72;;;4.26;67.67
71384;BME280;61466;52.166;5.004;2022-12-11T08:49:47;101163.66;;;4.27;67.79
71384;BME280;61466;52.166;5.004;2022-12-11T08:52:12;101172.22;;;4.29;67.74
71384;BME280;61466;52.166;5.004;2022-12-11T08:54:37;101171.19;;;4.30;67.54
71384;BME280;61466;52.166;5.004;2022-12-11T08:57:03;101164.88;;;4.31;67.71
71384;BME280;61466;52.166;5.004;2022-12-11T08:59:29;101163.03;;;4.31;67.73
71384;BME280;61466;52.166;5.004;2022-12-11T09:01:55;101158.31;;;4.34;67.72
71384;BME280;61466;52.166;5.004;2022-12-11T09:04:21;101166.44;;;4.39;67.55
71384;BME280;61466;52.166;5.004;2022-12-11T09:06:46;101163.16;;;4.43;67.65
71384;BME280;61466;52.166;5.004;2022-12-11T09:09:11;101158.06;;;4.42;67.46
71384;BME280;61466;52.166;5.004;2022-12-11T09:11:37;101154.81;;;4.40;67.48
71384;BME280;61466;52.166;5.004;2022-12-11T09:14:03;101157.41;;;4.46;67.11
71384;BME280;61466;52.166;5.004;2022-12-11T09:16:28;101147.88;;;4.45;67.32
71384;BME280;61466;52.166;5.004;2022-12-11T09:18:55;101155.16;;;4.50;67.28
71384;BME280;61466;52.166;5.004;2022-12-11T09:21:24;101149.03;;;4.49;67.07
71384;BME280;61466;52.166;5.004;2022-12-11T09:23:58;101145.16;;;4.52;67.18
71384;BME280;61466;52.166;5.004;2022-12-11T09:26:25;101151.84;;;4.55;67.04
71384;BME280;61466;52.166;5.004;2022-12-11T09:28:50;101151.84;;;4.55;66.87
71384;BME280;61466;52.166;5.004;2022-12-11T09:31:22;101154.50;;;4.55;67.04
71384;BME280;61466;52.166;5.004;2022-12-11T09:33:49;101162.66;;;4.53;66.92
71384;BME280;61466;52.166;5.004;2022-12-11T09:36:14;101149.63;;;4.51;66.71
71384;BME280;61466;52.166;5.004;2022-12-11T09:38:40;101143.31;;;4.53;67.00
71384;BME280;61466;52.166;5.004;2022-12-11T09:43:56;101147.34;;;4.55;66.66
71384;BME280;61466;52.166;5.004;2022-12-11T09:46:25;101130.06;;;4.53;67.09
71384;BME280;61466;52.166;5.004;2022-12-11T09:48:51;101135.31;;;4.59;66.83
71384;BME280;61466;52.166;5.004;2022-12-11T09:53:59;101134.84;;;4.62;66.97
71384;BME280;61466;52.166;5.004;2022-12-11T09:56:33;101128.75;;;4.62;66.65
71384;BME280;61466;52.166;5.004;2022-12-11T10:01:49;101128.75;;;4.62;66.17
71384;BME280;61466;52.166;5.004;2022-12-11T10:04:37;101123.66;;;4.60;66.70
71384;BME280;61466;52.166;5.004;2022-12-11T10:07:15;101136.44;;;4.70;66.75
71384;BME280;61466;52.166;5.004;2022-12-11T10:09:48;101137.63;;;4.74;66.82
71384;BME280;61466;52.166;5.004;2022-12-11T10:12:31;101129.66;;;4.74;66.85
71384;BME280;61466;52.166;5.004;2022-12-11T10:17:49;101135.28;;;4.84;66.43
71384;BME280;61466;52.166;5.004;2022-12-11T10:20:28;101126.16;;;4.80;66.69
71384;BME280;61466;52.166;5.004;2022-12-11T10:23:02;101126.50;;;4.84;66.57
71384;BME280;61466;52.166;5.004;2022-12-11T10:25:41;101127.75;;;4.81;66.30
71384;BME280;61466;52.166;5.004;2022-12-11T10:28:17;101134.63;;;4.89;66.52
71384;BME280;61466;52.166;5.004;2022-12-11T10:34:00;101134.78;;;4.94;66.68
71384;BME280;61466;52.166;5.004;2022-12-11T10:36:28;101130.84;;;4.97;66.70
71384;BME280;61466;52.166;5.004;2022-12-11T10:38:54;101124.53;;;4.98;66.63
71384;BME280;61466;52.166;5.004;2022-12-11T10:41:23;101120.50;;;4.95;66.85
71384;BME280;61466;52.166;5.004;2022-12-11T10:43:51;101126.31;;;5.04;66.59
71384;BME280;61466;52.166;5.004;2022-12-11T10:46:23;101106.66;;;4.93;66.43
71384;BME280;61466;52.166;5.004;2022-12-11T10:48:59;101129.13;;;5.09;66.39
71384;BME280;61466;52.166;5.004;2022-12-11T10:54:05;101115.44;;;5.12;66.50
71384;BME280;61466;52.166;5.004;2022-12-11T10:56:34;101113.00;;;5.10;66.67
71384;BME280;61466;52.166;5.004;2022-12-11T10:59:00;101114.97;;;5.15;66.32
71384;BME280;61466;52.166;5.004;2022-12-11T11:01:28;101109.22;;;5.18;66.46
71384;BME280;61466;52.166;5.004;2022-12-11T11:03:55;101109.22;;;5.18;66.59
71384;BME280;61466;52.166;5.004;2022-12-11T11:06:22;101105.38;;;5.14;66.09
71384;BME280;61466;52.166;5.004;2022-12-11T11:08:51;101109.81;;;5.20;66.48
71384;BME280;61466;52.166;5.004;2022-12-11T11:11:35;101109.38;;;5.23;66.54
71384;BME280;61466;52.166;5.004;2022-12-11T11:16:38;101109.38;;;5.23;66.35
71384;BME280;61466;52.166;5.004;2022-12-11T11:19:04;101100.84;;;5.21;66.18
71384;BME280;61466;52.166;5.004;2022-12-11T11:21:31;101081.50;;;5.14;66.54
71384;BME280;61466;52.166;5.004;2022-12-11T11:23:58;101092.88;;;5.21;66.01
71384;BME280;61466;52.166;5.004;2022-12-11T11:26:24;101091.41;;;5.25;66.18
71384;BME280;61466;52.166;5.004;2022-12-11T11:28:55;101097.50;;;5.26;66.51
71384;BME280;61466;52.166;5.004;2022-12-11T11:31:30;101101.41;;;5.23;66.19
71384;BME280;61466;52.166;5.004;2022-12-11T11:33:59;101112.16;;;5.28;66.29
71384;BME280;61466;52.166;5.004;2022-12-11T11:36:29;101077.63;;;5.17;66.44
71384;BME280;61466;52.166;5.004;2022-12-11T11:41:32;101110.78;;;5.26;66.54
71384;BME280;61466;52.166;5.004;2022-12-11T11:44:03;101091.03;;;5.22;66.05
71384;BME280;61466;52.166;5.004;2022-12-11T11:46:40;101103.28;;;5.23;66.76
71384;BME280;61466;52.166;5.004;2022-12-11T11:49:21;101095.44;;;5.28;66.45
71384;BME280;61466;52.166;5.004;2022-12-11T11:52:11;101082.56;;;5.31;66.36
71384;BME280;61466;52.166;5.004;2022-12-11T11:54:45;101083.78;;;5.29;66.47
71384;BME280;61466;52.166;5.004;2022-12-11T11:57:23;101079.66;;;5.33;66.04
71384;BME280;61466;52.166;5.004;2022-12-11T11:59:55;101077.84;;;5.33;66.38
71384;BME280;61466;52.166;5.004;2022-12-11T12:02:22;101074.13;;;5.34;66.23
71384;BME280;61466;52.166;5.004;2022-12-11T12:04:47;101077.38;;;5.37;65.77
71384;BME280;61466;52.166;5.004;2022-12-11T12:07:21;101072.28;;;5.35;66.06
71384;BME280;61466;52.166;5.004;2022-12-11T12:09:54;101074.94;;;5.35;66.25
71384;BME280;61466;52.166;5.004;2022-12-11T12:20:23;101078.56;;;5.41;66.15
71384;BME280;61466;52.166;5.004;2022-12-11T12:23:12;101074.03;;;5.41;66.28
71384;BME280;61466;52.166;5.004;2022-12-11T12:25:44;101053.13;;;5.33;66.44
71384;BME280;61466;52.166;5.004;2022-12-11T12:31:40;101073.97;;;5.48;65.76
71384;BME280;61466;52.166;5.004;2022-12-11T12:37:41;101073.53;;;5.51;65.48
71384;BME280;61466;52.166;5.004;2022-12-11T12:40:29;101065.41;;;5.46;65.67
71384;BME280;61466;52.166;5.004;2022-12-11T12:46:06;101066.31;;;5.40;65.37
71384;BME280;61466;52.166;5.004;2022-12-11T12:48:34;101070.81;;;5.39;65.78
71384;BME280;61466;52.166;5.004;2022-12-11T12:51:00;101065.72;;;5.38;65.65
71384;BME280;61466;52.166;5.004;2022-12-11T12:53:29;101068.75;;;5.41;66.01
71384;BME280;61466;52.166;5.004;2022-12-11T12:55:56;101067.94;;;5.41;65.79
71384;BME280;61466;52.166;5.004;2022-12-11T12:58:39;101068.16;;;5.39;65.73
71384;BME280;61466;52.166;5.004;2022-12-11T13:03:35;101064.47;;;5.40;65.81
71384;BME280;61466;52.166;5.004;2022-12-11T13:06:05;101067.94;;;5.41;66.05
71384;BME280;61466;52.166;5.004;2022-12-11T13:08:40;101064.47;;;5.40;66.06
71384;BME280;61466;52.166;5.004;2022-12-11T13:11:09;101060.66;;;5.36;65.86
71384;BME280;61466;52.166;5.004;2022-12-11T13:14:03;101062.25;;;5.37;65.53
71384;BME280;61466;52.166;5.004;2022-12-11T13:16:40;101061.47;;;5.37;65.96
71384;BME280;61466;52.166;5.004;2022-12-11T13:24:28;101069.41;;;5.37;65.74
71384;BME280;61466;52.166;5.004;2022-12-11T13:26:55;101059.47;;;5.32;65.78
71384;BME280;61466;52.166;5.004;2022-12-11T13:29:33;101065.16;;;5.36;66.01
71384;BME280;61466;52.166;5.004;2022-12-11T13:32:19;101068.81;;;5.34;65.84
71384;BME280;61466;52.166;5.004;2022-12-11T13:35:05;101078.84;;;5.32;66.14
71384;BME280;61466;52.166;5.004;2022-12-11T13:37:42;101070.09;;;5.32;66.09
71384;BME280;61466;52.166;5.004;2022-12-11T13:40:19;101069.72;;;5.28;66.08
71384;BME280;61466;52.166;5.004;2022-12-11T13:42:50;101083.56;;;5.30;65.90
71384;BME280;61466;52.166;5.004;2022-12-11T13:45:22;101063.81;;;5.26;66.21
71384;BME280;61466;52.166;5.004;2022-12-11T13:47:48;101061.16;;;5.26;65.70
71384;BME280;61466;52.166;5.004;2022-12-11T13:50:23;101067.88;;;5.29;65.81
71384;BME280;61466;52.166;5.004;2022-12-11T13:52:54;101067.28;;;5.27;65.74
71384;BME280;61466;52.166;5.004;2022-12-11T13:55:32;101081.13;;;5.29;65.63
71384;BME280;61466;52.166;5.004;2022-12-11T13:57:58;101073.41;;;5.27;65.91
71384;BME280;61466;52.166;5.004;2022-12-11T14:00:26;101076.66;;;5.29;66.04
71384;BME280;61466;52.166;5.004;2022-12-11T14:02:55;101078.72;;;5.27;65.89
71384;BME280;61466;52.166;5.004;2022-12-11T14:05:22;101074.22;;;5.28;65.90
71384;BME280;61466;52.166;5.004;2022-12-11T14:07:51;101086.69;;;5.27;65.78
71384;BME280;61466;52.166;5.004;2022-12-11T14:10:23;101078.34;;;5.24;65.89
71384;BME280;61466;52.166;5.004;2022-12-11T14:12:59;101079.22;;;5.18;65.95
71384;BME280;61466;52.166;5.004;2022-12-11T14:15:27;101085.72;;;5.22;66.12